Terminal Aerodrome Forecast
Issued by NWS Northern Indiana

Home | Current Version | Previous Version | Text Only | Print | Product List | Glossary Off
Versions: 1 2 3 4 5 6 7 8 9 10 11 12 13 14 15 16 17 18

042
FTUS43 KIWX 171029 AAA
TAFFWA
TAF AMD
KFWA 171029Z 1710/1806 18010KT 5SM BR OVC012
      TEMPO 1710/1712 2SM +TSRA OVC005CB
     FM171500 24010KT 3SM BR OVC006=

USA.gov is the U.S. government's official web portal to all federal, state and local government web resources and services.